Terminal Aerodrome Forecast
Issued by NWS

Home | Current Version | Previous Version | Text Only | Print | Product List | Glossary On
Versions: 1 2 3 4 5 6 7 8 9 10 11 12 13 14 15 16 17 18 19 20 21
000
FTUS41 KPBZ 251100
TAFDUJ
TAF
KDUJ 251121Z 2512/2612 22008KT P6SM BKN035
     FM251600 22012G25KT P6SM BKN040
     FM252000 24012G28KT P6SM BKN010
     FM260300 28012KT P6SM BKN040
     FM260700 29008KT P6SM SCT040=

USA.gov is the U.S. government's official web portal to all federal, state and local government web resources and services.